East Union, Washington
Current Conditions -  °F | °C
As of 1:53 PM on Monday 26 Jan 2015 (Local Time) from KBFI Reporting Station
Scattered Clouds Scattered Clouds  
Wind Chill: 64°   Ceiling: Unl
Heat Index: 64°   Visibility: 10mi
Dew Point: 47°   Wind: 7mph
Humidity: 54%   Direction: 170°S
Pressure: 29.92"   Gusts: NA
Location:  47.6108°N, 122.302°W
Report Text: KBFI 262153Z 17006KT 10SM SCT200 18/08 A2992 RMK AO2 SLP130 T01780083
Loading
Personal Weather Stations






























Interactive Weather Map New forecast layout! Learn more

10-Day Weather Forecast

Advertisements
Track Severe Weather on mobile